createdAt,value
2023-02-19T00:00:50.727Z,1008.07
2023-02-19T00:01:50.896Z,1008.04
2023-02-19T00:02:50.722Z,1008.07
2023-02-19T00:03:50.830Z,1008.07
2023-02-19T00:04:50.751Z,1008.06
2023-02-19T00:05:50.694Z,1007.98
2023-02-19T00:06:50.720Z,1007.99
2023-02-19T00:07:50.706Z,1007.93
2023-02-19T00:08:50.667Z,1008.01
2023-02-19T00:09:50.648Z,1007.96
2023-02-19T00:10:50.630Z,1007.93
2023-02-19T00:11:50.655Z,1007.96
2023-02-19T00:12:50.618Z,1007.96
2023-02-19T00:13:50.612Z,1007.97
2023-02-19T00:14:50.579Z,1007.88
2023-02-19T00:15:50.667Z,1007.90
2023-02-19T00:16:50.564Z,1007.90
2023-02-19T00:17:50.568Z,1007.85
2023-02-19T00:18:50.577Z,1007.82
2023-02-19T00:19:50.546Z,1007.82
2023-02-19T00:20:50.536Z,1007.77
2023-02-19T00:21:50.565Z,1007.72
2023-02-19T00:22:50.513Z,1007.77
2023-02-19T00:23:50.499Z,1007.76
2023-02-19T00:24:50.473Z,1007.79
2023-02-19T00:25:50.490Z,1007.79
2023-02-19T00:26:50.445Z,1007.81
2023-02-19T00:27:50.503Z,1007.93
2023-02-19T00:28:50.456Z,1007.84
2023-02-19T00:29:50.515Z,1007.87
2023-02-19T00:30:50.450Z,1007.85
2023-02-19T00:31:50.595Z,1007.81
2023-02-19T00:32:50.386Z,1007.84
2023-02-19T00:33:50.420Z,1007.87
2023-02-19T00:34:50.380Z,1007.84
2023-02-19T00:35:50.402Z,1007.87
2023-02-19T00:36:50.417Z,1007.89
2023-02-19T00:37:50.375Z,1007.87
2023-02-19T00:38:50.349Z,1007.83
2023-02-19T00:39:50.399Z,1007.85
2023-02-19T00:40:50.305Z,1007.79
2023-02-19T00:41:50.479Z,1007.86
2023-02-19T00:42:50.285Z,1007.89
2023-02-19T00:43:50.331Z,1007.90
2023-02-19T00:44:50.330Z,1007.96
2023-02-19T00:45:50.262Z,1007.93
2023-02-19T00:46:50.269Z,1007.93
2023-02-19T00:47:50.294Z,1007.96
2023-02-19T00:48:50.222Z,1007.96
2023-02-19T00:49:50.235Z,1007.84
2023-02-19T00:50:50.200Z,1007.79
2023-02-19T00:51:50.214Z,1007.72
2023-02-19T00:52:50.281Z,1007.69
2023-02-19T00:53:50.182Z,1007.62
2023-02-19T00:54:50.180Z,1007.61
2023-02-19T00:55:50.177Z,1007.69
2023-02-19T00:56:50.213Z,1007.70
2023-02-19T00:57:50.203Z,1007.66
2023-02-19T00:58:50.192Z,1007.65
2023-02-19T00:59:50.140Z,1007.60
2023-02-19T01:00:50.117Z,1007.63
2023-02-19T01:01:50.209Z,1007.64
2023-02-19T01:02:50.053Z,1007.65
2023-02-19T01:03:50.119Z,1007.74
2023-02-19T01:04:50.111Z,1007.73
2023-02-19T01:05:50.121Z,1007.74
2023-02-19T01:06:50.034Z,1007.70
2023-02-19T01:07:50.163Z,1007.67
2023-02-19T01:08:50.047Z,1007.62
2023-02-19T01:09:50.005Z,1007.55
2023-02-19T01:10:49.962Z,1007.51
2023-02-19T01:11:50.007Z,1007.51
2023-02-19T01:12:50.089Z,1007.56
2023-02-19T01:13:49.952Z,1007.60
2023-02-19T01:14:49.928Z,1007.53
2023-02-19T01:15:50.082Z,1007.51
2023-02-19T01:16:49.973Z,1007.51
2023-02-19T01:17:49.930Z,1007.50
2023-02-19T01:18:49.900Z,1007.48
2023-02-19T01:19:49.916Z,1007.51
2023-02-19T01:20:49.867Z,1007.53
2023-02-19T01:21:49.873Z,1007.49
2023-02-19T01:22:49.854Z,1007.48
2023-02-19T01:23:49.856Z,1007.47
2023-02-19T01:24:49.860Z,1007.44
2023-02-19T01:25:49.834Z,1007.46
2023-02-19T01:26:49.834Z,1007.38
2023-02-19T01:27:49.809Z,1007.42
2023-02-19T01:28:49.791Z,1007.43
2023-02-19T01:29:49.812Z,1007.37
2023-02-19T01:30:49.760Z,1007.40
2023-02-19T01:31:49.922Z,1007.41
2023-02-19T01:32:49.726Z,1007.43
2023-02-19T01:33:49.734Z,1007.44
2023-02-19T01:34:49.713Z,1007.43
2023-02-19T01:35:49.717Z,1007.42
2023-02-19T01:36:49.685Z,1007.36
2023-02-19T01:37:49.717Z,1007.35
2023-02-19T01:38:49.773Z,1007.33
2023-02-19T01:39:49.675Z,1007.35
2023-02-19T01:40:49.644Z,1007.42
2023-02-19T01:41:49.664Z,1007.43
2023-02-19T01:42:49.619Z,1007.38
2023-02-19T01:43:49.657Z,1007.35
2023-02-19T01:44:49.602Z,1007.36
2023-02-19T01:45:49.620Z,1007.41
2023-02-19T01:46:49.594Z,1007.37
2023-02-19T01:47:49.604Z,1007.34
2023-02-19T01:48:49.560Z,1007.36
2023-02-19T01:49:49.558Z,1007.36
2023-02-19T01:50:49.536Z,1007.35
2023-02-19T01:51:49.552Z,1007.30
2023-02-19T01:52:49.510Z,1007.26
2023-02-19T01:53:49.535Z,1007.27
2023-02-19T01:54:49.505Z,1007.31
2023-02-19T01:55:49.493Z,1007.29
2023-02-19T01:56:49.480Z,1007.26
2023-02-19T01:57:49.497Z,1007.29
2023-02-19T01:58:49.459Z,1007.30
2023-02-19T01:59:49.515Z,1007.29
2023-02-19T02:00:49.501Z,1007.26
2023-02-19T02:01:49.468Z,1007.30
2023-02-19T02:02:49.398Z,1007.26
2023-02-19T02:03:49.407Z,1007.27
2023-02-19T02:04:49.411Z,1007.35
2023-02-19T02:05:49.418Z,1007.30
2023-02-19T02:06:49.359Z,1007.28
2023-02-19T02:07:49.370Z,1007.23
2023-02-19T02:08:49.364Z,1007.22
2023-02-19T02:09:49.344Z,1007.24
2023-02-19T02:10:49.314Z,1007.21
2023-02-19T02:11:49.356Z,1007.19
2023-02-19T02:12:49.291Z,1007.12
2023-02-19T02:13:49.320Z,1007.08
2023-02-19T02:14:49.280Z,1007.09
2023-02-19T02:15:49.276Z,1007.12
2023-02-19T02:16:49.270Z,1007.05
2023-02-19T02:17:49.284Z,1007.00
2023-02-19T02:18:49.225Z,1007.00
2023-02-19T02:19:49.237Z,1007.00
2023-02-19T02:20:49.208Z,1007.05
2023-02-19T02:21:49.216Z,1007.02
2023-02-19T02:22:49.245Z,1007.04
2023-02-19T02:23:49.187Z,1007.02
2023-02-19T02:24:49.183Z,1007.03
2023-02-19T02:25:49.175Z,1007.02
2023-02-19T02:26:49.167Z,1007.02
2023-02-19T02:27:49.162Z,1007.09
2023-02-19T02:28:49.123Z,1007.09
2023-02-19T02:29:49.131Z,1007.06
2023-02-19T07:00:58.555Z,1008.55
2023-02-19T07:01:59.417Z,1008.50
2023-02-19T07:02:59.558Z,1008.55
2023-02-19T07:03:59.513Z,1008.58
2023-02-19T07:04:59.392Z,1008.60
2023-02-19T07:05:59.396Z,1008.60
2023-02-19T07:06:59.373Z,1008.62
2023-02-19T07:07:59.352Z,1008.67
2023-02-19T07:08:59.373Z,1008.66
2023-02-19T07:09:59.333Z,1008.67
2023-02-19T07:10:59.339Z,1008.68
2023-02-19T07:11:59.318Z,1008.64
2023-02-19T07:12:59.304Z,1008.64
2023-02-19T07:13:59.302Z,1008.66
2023-02-19T07:14:59.285Z,1008.72
2023-02-19T07:15:59.305Z,1008.78
2023-02-19T07:16:59.311Z,1008.79
2023-02-19T07:17:59.327Z,1008.83
2023-02-19T07:18:59.258Z,1008.81
2023-02-19T07:19:59.215Z,1008.83
2023-02-19T07:20:59.230Z,1008.85
2023-02-19T07:21:59.196Z,1008.83
2023-02-19T07:22:59.223Z,1008.84
2023-02-19T07:23:59.213Z,1008.88
2023-02-19T07:24:59.197Z,1008.88
2023-02-19T07:25:59.152Z,1008.92
2023-02-19T07:26:59.204Z,1008.95
2023-02-19T07:27:59.162Z,1008.98
2023-02-19T07:28:59.143Z,1009.02
2023-02-19T07:29:59.226Z,1009.01
2023-02-19T07:30:59.171Z,1008.95
2023-02-19T07:31:59.104Z,1008.96
2023-02-19T07:32:59.095Z,1008.98
2023-02-19T07:33:59.077Z,1009.03
2023-02-19T07:34:59.086Z,1009.01
2023-02-19T07:35:59.067Z,1009.03
2023-02-19T07:36:59.051Z,1009.04
2023-02-19T07:37:59.048Z,1009.03
2023-02-19T07:38:59.052Z,1009.07
2023-02-19T07:39:59.005Z,1009.06
2023-02-19T07:40:59.011Z,1009.09
2023-02-19T07:41:59.004Z,1009.13
2023-02-19T07:42:58.994Z,1009.15
2023-02-19T07:43:59.004Z,1009.14
2023-02-19T07:45:00.602Z,1009.12
2023-02-19T07:45:59.045Z,1009.20
2023-02-19T07:46:58.977Z,1009.19
2023-02-19T07:47:58.985Z,1009.20
2023-02-19T07:48:58.927Z,1009.18
2023-02-19T07:49:58.900Z,1009.16
2023-02-19T07:50:58.909Z,1009.20
2023-02-19T07:51:58.882Z,1009.24
2023-02-19T07:52:58.911Z,1009.26
2023-02-19T07:53:58.869Z,1009.23
2023-02-19T07:54:58.870Z,1009.27
2023-02-19T07:55:58.839Z,1009.27
2023-02-19T07:56:58.838Z,1009.32
2023-02-19T07:57:58.852Z,1009.35
2023-02-19T07:58:58.861Z,1009.33
2023-02-19T07:59:58.801Z,1009.31
2023-02-19T08:00:58.822Z,1009.31
2023-02-19T08:01:58.795Z,1009.33
2023-02-19T08:02:58.857Z,1009.41
2023-02-19T08:03:58.791Z,1009.40
2023-02-19T08:04:58.756Z,1009.43
2023-02-19T08:05:58.763Z,1009.41
2023-02-19T08:06:58.740Z,1009.45
2023-02-19T08:07:58.766Z,1009.45
2023-02-19T08:08:58.702Z,1009.44
2023-02-19T08:09:58.712Z,1009.43
2023-02-19T08:10:58.689Z,1009.42
2023-02-19T08:11:58.690Z,1009.45
2023-02-19T08:12:58.674Z,1009.45
2023-02-19T08:13:58.685Z,1009.56
2023-02-19T08:14:58.644Z,1009.50
2023-02-19T08:16:10.966Z,1009.50
2023-02-19T08:16:58.655Z,1009.60
2023-02-19T08:17:58.807Z,1009.58
2023-02-19T08:18:58.601Z,1009.65
2023-02-19T08:19:58.599Z,1009.66
2023-02-19T08:20:58.578Z,1009.70
2023-02-19T08:21:58.602Z,1009.72
2023-02-19T08:22:58.559Z,1009.71
2023-02-19T08:23:58.578Z,1009.78
2023-02-19T08:24:58.550Z,1009.77
2023-02-19T08:25:58.546Z,1009.78
2023-02-19T08:26:58.515Z,1009.83
2023-02-19T08:27:59.293Z,1009.88
2023-02-19T08:28:58.488Z,1009.81
2023-02-19T08:29:58.488Z,1009.84
2023-02-19T08:30:58.519Z,1009.82
2023-02-19T08:31:58.519Z,1009.97
2023-02-19T08:32:59.358Z,1009.95
2023-02-19T08:33:58.445Z,1009.98
2023-02-19T08:34:58.476Z,1009.96
2023-02-19T08:35:58.436Z,1009.97
2023-02-19T08:36:58.420Z,1009.98
2023-02-19T08:37:59.174Z,1009.98
2023-02-19T08:38:58.382Z,1009.98
2023-02-19T08:39:58.425Z,1010.00
2023-02-19T08:40:58.357Z,1010.03
2023-02-19T08:41:58.366Z,1010.03
2023-02-19T08:42:58.351Z,1010.03
2023-02-19T08:43:58.407Z,1010.02
2023-02-19T08:44:58.324Z,1010.06
2023-02-19T08:45:58.333Z,1010.02
2023-02-19T08:46:58.305Z,1010.08
2023-02-19T08:47:58.294Z,1010.06
2023-02-19T08:48:58.367Z,1010.11
2023-02-19T08:49:58.276Z,1010.18
2023-02-19T08:50:58.261Z,1010.15
2023-02-19T08:51:58.255Z,1010.15
2023-02-19T08:52:58.230Z,1010.15
2023-02-19T08:53:58.263Z,1010.11
2023-02-19T08:54:58.268Z,1010.10
2023-02-19T08:55:58.211Z,1010.10
2023-02-19T08:56:58.186Z,1010.07
2023-02-19T08:57:58.189Z,1010.06
2023-02-19T08:58:58.162Z,1010.14
2023-02-19T08:59:58.164Z,1010.07
2023-02-19T09:00:58.194Z,1010.11
2023-02-19T09:01:58.158Z,1010.22
2023-02-19T09:02:58.124Z,1010.21
2023-02-19T09:03:58.176Z,1010.18
2023-02-19T09:04:58.101Z,1010.21
2023-02-19T09:05:58.126Z,1010.31
2023-02-19T09:06:58.081Z,1010.24
2023-02-19T09:07:58.117Z,1010.22
2023-02-19T09:08:58.061Z,1010.21
2023-02-19T09:09:58.061Z,1010.24
2023-02-19T09:10:58.037Z,1010.24
2023-02-19T09:11:58.044Z,1010.26
2023-02-19T09:12:58.038Z,1010.23
2023-02-19T09:13:58.020Z,1010.23
2023-02-19T09:14:57.990Z,1010.21
2023-02-19T09:15:58.063Z,1010.28
2023-02-19T09:16:57.981Z,1010.23
2023-02-19T09:17:57.984Z,1010.32
2023-02-19T09:18:57.966Z,1010.33
2023-02-19T09:19:57.960Z,1010.34
2023-02-19T09:20:57.936Z,1010.35
2023-02-19T09:21:57.941Z,1010.44
2023-02-19T09:22:57.963Z,1010.38
2023-02-19T09:23:57.916Z,1010.44
2023-02-19T09:24:57.895Z,1010.48
2023-02-19T09:25:57.891Z,1010.50
2023-02-19T09:26:57.902Z,1010.48
2023-02-19T09:27:57.908Z,1010.49
2023-02-19T09:28:57.851Z,1010.51
2023-02-19T09:29:57.851Z,1010.48
2023-02-19T09:30:57.897Z,1010.45
2023-02-19T09:31:57.872Z,1010.43
2023-02-19T09:32:57.811Z,1010.37
2023-02-19T09:33:57.866Z,1010.36
2023-02-19T09:34:57.786Z,1010.37
2023-02-19T09:35:57.786Z,1010.38
2023-02-19T09:36:57.765Z,1010.41
2023-02-19T09:37:57.767Z,1010.44
2023-02-19T09:38:57.762Z,1010.39
2023-02-19T09:39:57.754Z,1010.39
2023-02-19T09:40:57.735Z,1010.42
2023-02-19T09:41:57.728Z,1010.40
2023-02-19T09:42:57.760Z,1010.43
2023-02-19T09:43:57.703Z,1010.43
2023-02-19T09:44:57.696Z,1010.45
2023-02-19T09:45:57.731Z,1010.49
2023-02-19T09:46:57.680Z,1010.58
2023-02-19T09:47:57.671Z,1010.47
2023-02-19T09:48:57.666Z,1010.46
2023-02-19T09:49:57.651Z,1010.50
2023-02-19T09:50:57.632Z,1010.51
2023-02-19T09:51:57.619Z,1010.54
2023-02-19T09:52:57.594Z,1010.48
2023-02-19T09:53:57.606Z,1010.60
2023-02-19T09:54:57.599Z,1010.56
2023-02-19T09:55:57.583Z,1010.57
2023-02-19T09:56:57.602Z,1010.60
2023-02-19T09:57:57.549Z,1010.65
2023-02-19T09:58:57.570Z,1010.61
2023-02-19T09:59:57.535Z,1010.63
2023-02-19T10:00:57.519Z,1010.71
2023-02-19T10:01:57.527Z,1010.70
2023-02-19T10:02:57.515Z,1010.76
2023-02-19T10:03:57.497Z,1010.90
2023-02-19T10:04:57.476Z,1010.83
2023-02-19T10:05:57.466Z,1010.85
2023-02-19T10:06:57.468Z,1010.92
2023-02-19T10:07:57.447Z,1010.89
2023-02-19T10:08:57.456Z,1010.90
2023-02-19T10:09:57.433Z,1010.90
2023-02-19T10:10:57.394Z,1010.93
2023-02-19T10:11:57.398Z,1010.94
2023-02-19T10:12:57.377Z,1010.95
2023-02-19T10:13:57.390Z,1011.05
2023-02-19T10:14:57.432Z,1011.11
2023-02-19T10:15:57.398Z,1011.10
2023-02-19T10:16:57.337Z,1011.09
2023-02-19T10:17:57.367Z,1011.06
2023-02-19T10:18:57.307Z,1011.07
2023-02-19T10:19:57.348Z,1011.09
2023-02-19T10:20:57.293Z,1011.11
2023-02-19T10:21:57.287Z,1011.14
2023-02-19T10:22:57.321Z,1011.23
2023-02-19T10:23:57.288Z,1011.21
2023-02-19T10:24:57.247Z,1011.24
2023-02-19T10:25:57.266Z,1011.21
2023-02-19T10:26:57.226Z,1011.23
2023-02-19T10:27:57.277Z,1011.27
2023-02-19T10:28:57.224Z,1011.29
2023-02-19T10:29:57.239Z,1011.29
2023-02-19T10:30:57.199Z,1011.27
2023-02-19T10:31:57.267Z,1011.25
2023-02-19T10:32:57.169Z,1011.29
2023-02-19T10:33:57.180Z,1011.26
2023-02-19T10:34:57.137Z,1011.21
2023-02-19T10:35:57.159Z,1011.23
2023-02-19T10:36:57.131Z,1011.25
2023-02-19T10:37:57.133Z,1011.27
2023-02-19T10:38:57.104Z,1011.21
2023-02-19T10:39:57.127Z,1011.25
2023-02-19T10:40:57.079Z,1011.28
2023-02-19T10:41:57.096Z,1011.29
2023-02-19T10:42:57.063Z,1011.35
2023-02-19T10:43:57.057Z,1011.40
2023-02-19T10:44:57.043Z,1011.43
2023-02-19T10:45:57.045Z,1011.47
2023-02-19T10:46:57.016Z,1011.48
2023-02-19T10:47:57.032Z,1011.49
2023-02-19T10:48:56.994Z,1011.50
2023-02-19T10:49:57.024Z,1011.52
2023-02-19T10:50:56.973Z,1011.51
2023-02-19T10:51:56.977Z,1011.52
2023-02-19T10:52:56.948Z,1011.52
2023-02-19T10:53:56.979Z,1011.58
2023-02-19T10:54:56.929Z,1011.50
2023-02-19T10:55:56.981Z,1011.52
2023-02-19T10:56:56.909Z,1011.55
2023-02-19T10:57:56.913Z,1011.62
2023-02-19T10:58:56.891Z,1011.67
2023-02-19T10:59:56.952Z,1011.70
2023-02-19T11:00:56.874Z,1011.79
2023-02-19T11:01:56.991Z,1011.76
2023-02-19T11:02:56.843Z,1011.72
2023-02-19T11:03:56.845Z,1011.70
2023-02-19T11:04:56.819Z,1011.71
2023-02-19T11:05:56.834Z,1011.65
2023-02-19T11:06:56.800Z,1011.64
2023-02-19T11:07:56.845Z,1011.70
2023-02-19T11:08:56.791Z,1011.69
2023-02-19T11:09:56.842Z,1011.73
2023-02-19T11:10:56.764Z,1011.77
2023-02-19T11:11:56.788Z,1011.77
2023-02-19T11:12:56.789Z,1011.74
2023-02-19T11:13:56.735Z,1011.75
2023-02-19T11:14:56.728Z,1011.73
2023-02-19T11:15:56.747Z,1011.77
2023-02-19T11:16:56.700Z,1011.75
2023-02-19T11:17:56.747Z,1011.75
2023-02-19T11:18:57.214Z,1011.74
2023-02-19T11:19:56.690Z,1011.74
2023-02-19T11:20:56.651Z,1011.77
2023-02-19T11:21:56.661Z,1011.83
2023-02-19T11:22:56.636Z,1011.81
2023-02-19T11:23:56.650Z,1011.82
2023-02-19T11:24:59.348Z,1011.82
2023-02-19T11:25:56.655Z,1011.85
2023-02-19T11:26:56.609Z,1011.87
2023-02-19T11:27:56.593Z,1011.88
2023-02-19T11:28:56.569Z,1011.89
2023-02-19T11:29:56.592Z,1011.91
2023-02-19T11:30:56.574Z,1011.94
2023-02-19T11:31:56.698Z,1011.84
2023-02-19T11:32:56.554Z,1011.90
2023-02-19T11:33:56.540Z,1011.90
2023-02-19T11:34:56.504Z,1011.86
2023-02-19T11:35:56.519Z,1011.86
2023-02-19T11:36:56.487Z,1011.83
2023-02-19T11:37:56.498Z,1011.80
2023-02-19T11:38:56.471Z,1011.77
2023-02-19T11:39:56.488Z,1011.70
2023-02-19T11:40:56.465Z,1011.68
2023-02-19T11:41:56.457Z,1011.68
2023-02-19T11:42:56.447Z,1011.69
2023-02-19T11:43:56.447Z,1011.69
2023-02-19T11:44:56.413Z,1011.70
2023-02-19T11:45:56.409Z,1011.73
2023-02-19T11:46:56.424Z,1011.77
2023-02-19T11:47:56.381Z,1011.73
2023-02-19T11:48:56.363Z,1011.72
2023-02-19T11:49:56.365Z,1011.71
2023-02-19T11:50:56.336Z,1011.76
2023-02-19T11:51:56.372Z,1011.79
2023-02-19T11:52:56.321Z,1011.79
2023-02-19T11:53:56.322Z,1011.82
2023-02-19T11:54:56.296Z,1011.85
2023-02-19T11:55:56.300Z,1011.79
2023-02-19T11:56:56.305Z,1011.81
2023-02-19T11:57:56.298Z,1011.76
2023-02-19T11:58:56.248Z,1011.70
2023-02-19T11:59:56.290Z,1011.68
2023-02-19T12:00:56.266Z,1011.63
2023-02-19T12:01:56.264Z,1011.60
2023-02-19T12:02:56.207Z,1011.58
2023-02-19T12:03:56.224Z,1011.64
2023-02-19T12:04:56.249Z,1011.60
2023-02-19T12:05:56.196Z,1011.61
2023-02-19T12:06:56.174Z,1011.58
2023-02-19T12:07:56.192Z,1011.55
2023-02-19T12:08:56.145Z,1011.53
2023-02-19T12:09:56.143Z,1011.50
2023-02-19T12:10:56.140Z,1011.50
2023-02-19T12:11:56.142Z,1011.54
2023-02-19T12:12:56.148Z,1011.58
2023-02-19T12:13:56.117Z,1011.56
2023-02-19T12:14:56.164Z,1011.55
2023-02-19T12:16:56.084Z,1011.53
2023-02-19T12:17:56.068Z,1011.57
2023-02-19T12:18:56.059Z,1011.61
2023-02-19T12:19:56.035Z,1011.63
2023-02-19T12:20:56.028Z,1011.64
2023-02-19T12:21:56.006Z,1011.76
2023-02-19T12:22:56.008Z,1011.60
2023-02-19T12:23:55.995Z,1011.62
2023-02-19T12:24:55.996Z,1011.63
2023-02-19T12:25:55.965Z,1011.69
2023-02-19T12:26:55.965Z,1011.63
2023-02-19T12:27:55.972Z,1011.60
2023-02-19T12:28:55.955Z,1011.72
2023-02-19T12:29:55.917Z,1011.66
2023-02-19T12:30:55.932Z,1011.68
2023-02-19T12:31:55.915Z,1011.77
2023-02-19T12:32:55.904Z,1011.63
2023-02-19T12:33:55.882Z,1011.72
2023-02-19T12:34:55.902Z,1011.68
2023-02-19T12:35:55.863Z,1011.76
2023-02-19T12:36:55.869Z,1011.76
2023-02-19T12:37:55.839Z,1011.77
2023-02-19T12:38:55.842Z,1011.86
2023-02-19T12:39:55.823Z,1011.85
2023-02-19T12:40:55.834Z,1011.87
2023-02-19T12:41:55.792Z,1011.88
2023-02-19T12:42:55.802Z,1011.79
2023-02-19T12:43:55.773Z,1011.75
2023-02-19T12:44:55.796Z,1011.80
2023-02-19T12:45:55.786Z,1011.77
2023-02-19T12:46:55.768Z,1011.79
2023-02-19T12:47:55.731Z,1011.69
2023-02-19T12:48:55.746Z,1011.69
2023-02-19T12:49:55.729Z,1011.73
2023-02-19T12:50:55.721Z,1011.71
2023-02-19T12:51:55.693Z,1011.66
2023-02-19T12:52:55.726Z,1011.64
2023-02-19T12:53:55.680Z,1011.63
2023-02-19T12:54:55.967Z,1011.65
2023-02-19T12:55:55.644Z,1011.69
2023-02-19T12:56:55.659Z,1011.69
2023-02-19T12:57:55.639Z,1011.61
2023-02-19T12:58:55.632Z,1011.60
2023-02-19T12:59:55.613Z,1011.62
2023-02-19T13:00:55.652Z,1011.60
2023-02-19T13:01:55.643Z,1011.61
2023-02-19T13:02:55.587Z,1011.62
2023-02-19T13:03:55.574Z,1011.61
2023-02-19T13:04:55.590Z,1011.52
2023-02-19T13:05:55.562Z,1011.52
2023-02-19T13:06:55.565Z,1011.54
2023-02-19T13:07:55.516Z,1011.58
2023-02-19T13:09:06.374Z,1011.59
2023-02-19T13:09:55.501Z,1011.59
2023-02-19T13:10:55.539Z,1011.60
2023-02-19T13:11:55.484Z,1011.61
2023-02-19T13:12:55.482Z,1011.64
2023-02-19T13:13:55.471Z,1011.56
2023-02-19T13:14:55.474Z,1011.64
2023-02-19T13:15:55.564Z,1011.71
2023-02-19T13:16:55.495Z,1011.72
2023-02-19T13:17:55.412Z,1011.75
2023-02-19T13:18:55.418Z,1011.72
2023-02-19T13:19:55.416Z,1011.68
2023-02-19T13:20:55.414Z,1011.67
2023-02-19T13:21:55.386Z,1011.71
2023-02-19T13:22:55.383Z,1011.66
2023-02-19T13:23:55.362Z,1011.64
2023-02-19T13:24:55.350Z,1011.65
2023-02-19T13:25:57.520Z,1011.63
2023-02-19T13:26:55.344Z,1011.65
2023-02-19T13:27:55.314Z,1011.72
2023-02-19T13:28:55.320Z,1011.64
2023-02-19T13:29:55.282Z,1011.66
2023-02-19T13:30:55.435Z,1011.68
2023-02-19T13:31:55.368Z,1011.65
2023-02-19T13:32:55.262Z,1011.68
2023-02-19T13:33:55.240Z,1011.63
2023-02-19T13:34:55.255Z,1011.67
2023-02-19T13:35:55.221Z,1011.72
2023-02-19T13:36:55.259Z,1011.73
2023-02-19T13:37:55.201Z,1011.79
2023-02-19T13:38:55.202Z,1011.79
2023-02-19T13:39:55.202Z,1011.78
2023-02-19T13:40:55.191Z,1011.80
2023-02-19T13:41:55.171Z,1011.79
2023-02-19T13:42:55.165Z,1011.76
2023-02-19T13:43:55.154Z,1011.80
2023-02-19T13:44:57.773Z,1011.80
2023-02-19T13:45:55.128Z,1011.84
2023-02-19T13:46:55.134Z,1011.86
2023-02-19T13:47:55.094Z,1011.88
2023-02-19T13:48:55.095Z,1011.84
2023-02-19T13:49:55.067Z,1011.81
2023-02-19T13:50:55.082Z,1011.82
2023-02-19T13:51:55.077Z,1011.83
2023-02-19T13:52:55.074Z,1011.81
2023-02-19T13:53:55.029Z,1011.90
2023-02-19T13:54:55.029Z,1011.86
2023-02-19T13:55:55.007Z,1011.92
2023-02-19T13:56:55.127Z,1011.94
2023-02-19T13:57:55.024Z,1011.92
2023-02-19T13:58:55.037Z,1011.92
2023-02-19T13:59:54.998Z,1011.89
2023-02-19T14:00:55.019Z,1011.91
2023-02-19T14:01:55.097Z,1011.92
2023-02-19T14:02:54.950Z,1011.91
2023-02-19T14:03:54.989Z,1011.93
2023-02-19T14:04:54.956Z,1011.92
2023-02-19T14:05:54.915Z,1011.97
2023-02-19T14:06:54.915Z,1011.95
2023-02-19T14:07:54.918Z,1011.94
2023-02-19T14:08:54.921Z,1012.05
2023-02-19T14:09:54.886Z,1012.06
2023-02-19T14:10:54.898Z,1011.99
2023-02-19T14:11:54.869Z,1011.97
2023-02-19T14:12:54.843Z,1012.08
2023-02-19T14:13:54.813Z,1012.03
2023-02-19T14:14:54.874Z,1012.06
2023-02-19T14:15:54.944Z,1012.08
2023-02-19T14:16:54.807Z,1012.12
2023-02-19T14:17:54.779Z,1012.15
2023-02-19T14:18:54.771Z,1012.06
2023-02-19T14:19:54.766Z,1012.05
2023-02-19T14:20:54.781Z,1012.05
2023-02-19T14:21:54.728Z,1012.08
2023-02-19T14:22:54.745Z,1012.09
2023-02-19T14:23:54.710Z,1012.08
2023-02-19T14:24:54.740Z,1012.17
2023-02-19T14:25:54.686Z,1012.13
2023-02-19T14:26:54.692Z,1012.16
2023-02-19T14:27:54.682Z,1012.16
2023-02-19T14:28:54.670Z,1012.24
2023-02-19T14:29:54.668Z,1012.22
2023-02-19T14:30:54.722Z,1012.20
2023-02-19T14:31:54.685Z,1012.22
2023-02-19T14:33:09.433Z,1012.17
2023-02-19T14:33:54.647Z,1012.20
2023-02-19T14:34:54.614Z,1012.21
2023-02-19T14:35:54.592Z,1012.18
2023-02-19T14:36:54.585Z,1012.15
2023-02-19T14:37:54.557Z,1012.16
2023-02-19T14:38:54.605Z,1012.18
2023-02-19T14:39:54.536Z,1012.13
2023-02-19T14:40:54.531Z,1012.15
2023-02-19T14:41:54.518Z,1012.17
2023-02-19T14:42:56.350Z,1012.16
2023-02-19T14:43:54.492Z,1012.11
2023-02-19T14:44:54.515Z,1012.11
2023-02-19T14:45:54.476Z,1012.11
2023-02-19T14:46:54.464Z,1012.16
2023-02-19T14:47:54.443Z,1012.17
2023-02-19T14:48:54.482Z,1012.18
2023-02-19T14:49:54.477Z,1012.20
2023-02-19T14:50:54.445Z,1012.21
2023-02-19T14:51:54.448Z,1012.26
2023-02-19T14:52:54.404Z,1012.14
2023-02-19T14:53:54.386Z,1012.28
2023-02-19T14:54:54.405Z,1012.19
2023-02-19T14:55:54.370Z,1012.18
2023-02-19T14:56:54.368Z,1012.22
2023-02-19T14:57:54.344Z,1012.25
2023-02-19T14:58:54.345Z,1012.22
2023-02-19T14:59:54.343Z,1012.24
2023-02-19T15:00:54.326Z,1012.27
2023-02-19T15:01:54.344Z,1012.27
2023-02-19T15:02:54.323Z,1012.20
2023-02-19T15:03:54.273Z,1012.20
2023-02-19T15:04:54.393Z,1012.19
2023-02-19T15:05:54.280Z,1012.27
2023-02-19T15:06:54.251Z,1012.31
2023-02-19T15:07:54.243Z,1012.30
2023-02-19T15:08:54.255Z,1012.38
2023-02-19T15:09:54.208Z,1012.30
2023-02-19T15:10:54.257Z,1012.30
2023-02-19T15:11:54.185Z,1012.40
2023-02-19T15:12:54.191Z,1012.50
2023-02-19T15:13:54.177Z,1012.36
2023-02-19T15:14:54.188Z,1012.34
2023-02-19T15:15:54.160Z,1012.37
2023-02-19T15:16:54.200Z,1012.45
2023-02-19T15:17:54.138Z,1012.42
2023-02-19T15:18:54.143Z,1012.52
2023-02-19T15:19:54.109Z,1012.46
2023-02-19T15:20:54.107Z,1012.47
2023-02-19T15:21:54.079Z,1012.57
2023-02-19T15:22:54.128Z,1012.49
2023-02-19T15:23:54.058Z,1012.57
2023-02-19T15:24:54.094Z,1012.64
2023-02-19T15:25:54.049Z,1012.61
2023-02-19T15:26:54.067Z,1012.65
2023-02-19T15:27:54.035Z,1012.62
2023-02-19T15:28:54.032Z,1012.63
2023-02-19T15:29:54.043Z,1012.63
2023-02-19T15:30:54.044Z,1012.65
2023-02-19T15:31:54.104Z,1012.66
2023-02-19T15:32:54.024Z,1012.75
2023-02-19T15:33:53.967Z,1012.65
2023-02-19T15:34:53.973Z,1012.65
2023-02-19T15:35:53.973Z,1012.67
2023-02-19T15:36:53.949Z,1012.66
2023-02-19T15:37:53.933Z,1012.67
2023-02-19T15:38:53.915Z,1012.72
2023-02-19T15:39:53.911Z,1012.75
2023-02-19T15:40:53.912Z,1012.69
2023-02-19T15:41:53.870Z,1012.80
2023-02-19T15:42:53.909Z,1012.73
2023-02-19T15:43:53.883Z,1012.69
2023-02-19T15:44:53.856Z,1012.71
2023-02-19T15:45:53.847Z,1012.73
2023-02-19T15:46:53.833Z,1012.80
2023-02-19T15:47:53.817Z,1012.76
2023-02-19T15:48:53.812Z,1012.69
2023-02-19T15:49:53.794Z,1012.67
2023-02-19T15:50:53.792Z,1012.70
2023-02-19T15:51:53.778Z,1012.67
2023-02-19T15:52:53.783Z,1012.68
2023-02-19T15:53:53.762Z,1012.84
2023-02-19T15:54:53.760Z,1012.64
2023-02-19T15:55:53.723Z,1012.67
2023-02-19T15:56:53.795Z,1012.61
2023-02-19T15:57:53.716Z,1012.63
2023-02-19T15:58:53.705Z,1012.49
2023-02-19T15:59:53.690Z,1012.44
2023-02-19T16:00:53.692Z,1012.45
2023-02-19T16:01:53.668Z,1012.40
2023-02-19T16:02:53.713Z,1012.40
2023-02-19T16:03:53.645Z,1012.42
2023-02-19T16:04:53.647Z,1012.40
2023-02-19T16:05:53.619Z,1012.40
2023-02-19T16:06:53.625Z,1012.37
2023-02-19T16:07:53.620Z,1012.35
2023-02-19T16:08:53.598Z,1012.38
2023-02-19T16:09:53.578Z,1012.30
2023-02-19T16:10:53.593Z,1012.33
2023-02-19T16:11:53.570Z,1012.32
2023-02-19T16:12:53.559Z,1012.41
2023-02-19T16:13:53.536Z,1012.32
2023-02-19T16:14:53.541Z,1012.39
2023-02-19T16:15:53.539Z,1012.40
2023-02-19T16:16:53.519Z,1012.35
2023-02-19T16:17:53.524Z,1012.28
2023-02-19T16:18:53.497Z,1012.26
2023-02-19T16:19:53.468Z,1012.20
2023-02-19T16:20:53.470Z,1012.17
2023-02-19T16:21:53.445Z,1012.19
2023-02-19T16:22:53.482Z,1012.24
2023-02-19T16:23:53.427Z,1012.31
2023-02-19T16:24:53.467Z,1012.32
2023-02-19T16:25:53.406Z,1012.36
2023-02-19T16:26:53.411Z,1012.35
2023-02-19T16:27:53.419Z,1012.36
2023-02-19T16:28:53.387Z,1012.43
2023-02-19T16:29:53.376Z,1012.40
2023-02-19T16:30:53.380Z,1012.42
2023-02-19T16:31:53.603Z,1012.44
2023-02-19T16:32:53.346Z,1012.45
2023-02-19T16:33:53.363Z,1012.49
2023-02-19T16:34:53.333Z,1012.46
2023-02-19T16:35:53.344Z,1012.39
2023-02-19T16:36:53.293Z,1012.42